Time;durP1;ratioP1;P1;durP2;ratioP2;P2;SDS_P1;SDS_P2;PMS_P1;PMS_P2;Temp;Humidity;BMP_temperature;BMP_pressure;BME280_temperature;BME280_humidity;BME280_pressure;Samples;Min_cycle;Max_cycle;Signal;HPM_P1;HPM_P2
2022/11/10 00:02:03;;;;;;;19.15;4.45;;;;;;;9.15;100.00;101638.56;4992830;28;20037;-75
2022/11/10 00:04:29;;;;;;;18.80;4.30;;;;;;;9.14;100.00;101641.25;4993491;28;20022;-75
2022/11/10 00:06:54;;;;;;;19.40;4.68;;;;;;;9.11;100.00;101637.03;4992388;28;20033;-75
2022/11/10 00:09:20;;;;;;;19.80;4.63;;;;;;;9.10;100.00;101648.47;5007277;28;20029;-75
2022/11/10 00:11:45;;;;;;;16.25;4.32;;;;;;;9.08;100.00;101648.56;4990099;28;20578;-75
2022/11/10 00:17:00;;;;;;;16.50;4.53;;;;;;;9.08;100.00;101642.47;4991632;28;20403;-75
2022/11/10 00:19:27;;;;;;;20.50;4.20;;;;;;;9.06;100.00;101641.69;5007760;28;20019;-75
2022/11/10 00:21:52;;;;;;;17.23;4.00;;;;;;;9.07;100.00;101646.84;4994499;28;20365;-75
2022/11/10 00:24:17;;;;;;;17.88;4.35;;;;;;;9.03;100.00;101645.34;4991734;28;20026;-74
2022/11/10 00:26:43;;;;;;;17.60;5.10;;;;;;;9.02;100.00;101643.63;4983201;28;20088;-75
2022/11/10 00:29:08;;;;;;;17.45;3.88;;;;;;;9.02;100.00;101642.78;4975122;28;20062;-75
2022/11/10 00:31:36;;;;;;;13.98;4.47;;;;;;;9.04;100.00;101646.19;5008320;28;20026;-75
2022/11/10 00:34:02;;;;;;;13.93;3.72;;;;;;;9.02;100.00;101646.25;5011676;28;20113;-75
2022/11/10 00:36:27;;;;;;;18.75;4.53;;;;;;;9.01;100.00;101657.69;5017717;28;20034;-74
2022/11/10 00:38:53;;;;;;;14.90;4.55;;;;;;;9.00;100.00;101660.41;4990951;28;20270;-74
2022/11/10 00:41:19;;;;;;;17.70;4.25;;;;;;;9.00;100.00;101668.28;5007887;28;20041;-75
2022/11/10 00:43:44;;;;;;;14.95;3.90;;;;;;;8.99;100.00;101675.31;5006903;28;20085;-75
2022/11/10 00:46:13;;;;;;;21.73;4.53;;;;;;;8.97;100.00;101671.91;4991870;28;20030;-73
2022/11/10 00:48:39;;;;;;;18.20;4.07;;;;;;;8.98;100.00;101675.41;4991622;28;20534;-74
2022/11/10 00:51:04;;;;;;;13.60;3.97;;;;;;;8.98;100.00;101678.00;4991634;28;20110;-81
2022/11/10 00:53:33;;;;;;;21.45;4.30;;;;;;;8.99;100.00;101685.81;4992044;28;20018;-81
2022/11/10 00:55:59;;;;;;;17.48;4.35;;;;;;;8.95;100.00;101679.03;4992727;28;20058;-81
2022/11/10 00:58:24;;;;;;;15.55;3.83;;;;;;;8.96;100.00;101682.50;4992368;28;20026;-82
2022/11/10 01:00:50;;;;;;;18.70;4.45;;;;;;;8.95;100.00;101673.78;4991559;28;20046;-81
2022/11/10 01:03:17;;;;;;;20.55;4.53;;;;;;;8.96;100.00;101680.72;4992439;28;20041;-82
2022/11/10 01:05:43;;;;;;;14.07;3.88;;;;;;;8.96;100.00;101680.72;4991160;28;20022;-82
2022/11/10 01:08:09;;;;;;;15.27;3.63;;;;;;;8.97;100.00;101673.69;4991062;28;20109;-82
2022/11/10 01:10:35;;;;;;;20.20;4.90;;;;;;;8.95;100.00;101675.56;4990088;28;20536;-82
2022/11/10 01:13:01;;;;;;;15.43;4.20;;;;;;;8.95;100.00;101680.81;4991331;28;20084;-82
2022/11/10 01:15:27;;;;;;;15.93;3.88;;;;;;;8.95;100.00;101678.19;4991218;28;20026;-82
2022/11/10 01:17:54;;;;;;;18.65;4.13;;;;;;;8.95;100.00;101683.44;4990761;28;20242;-81
2022/11/10 01:20:20;;;;;;;21.02;4.65;;;;;;;8.98;100.00;101678.00;5005846;28;20019;-82
2022/11/10 01:22:45;;;;;;;19.83;4.43;;;;;;;8.96;100.00;101693.84;4990690;28;20084;-82
2022/11/10 01:25:10;;;;;;;15.65;3.92;;;;;;;8.96;100.00;101693.84;4990178;28;20022;-82
2022/11/10 01:27:36;;;;;;;13.57;4.25;;;;;;;8.98;100.00;101709.50;5004022;28;20025;-82
2022/11/10 01:30:03;;;;;;;20.45;4.75;;;;;;;8.98;100.00;101715.59;5006217;28;20018;-82
2022/11/10 01:32:28;;;;;;;16.63;3.72;;;;;;;8.97;100.00;101718.31;4990037;28;20088;-82
2022/11/10 01:34:53;;;;;;;15.75;4.22;;;;;;;8.96;100.00;101720.09;4988601;28;20113;-82
2022/11/10 01:37:19;;;;;;;15.43;4.28;;;;;;;8.96;100.00;101716.63;4990720;28;20109;-75
2022/11/10 01:39:44;;;;;;;19.40;4.75;;;;;;;8.96;100.00;101714.84;5005161;28;20018;-75
2022/11/10 01:42:09;;;;;;;17.98;4.47;;;;;;;8.95;100.00;101722.81;4992480;28;20018;-75
2022/11/10 01:44:35;;;;;;;13.90;3.83;;;;;;;8.95;100.00;101722.81;5004506;28;20030;-75
2022/11/10 01:47:01;;;;;;;18.33;4.65;;;;;;;8.94;100.00;101721.09;4990584;28;20105;-75
2022/11/10 01:49:31;;;;;;;15.98;4.20;;;;;;;8.94;100.00;101724.56;4990330;28;20048;-82
2022/11/10 01:52:05;;;;;;;20.50;4.30;;;;;;;8.94;100.00;101718.47;4989251;28;20046;-81
2022/11/10 01:54:35;;;;;;;17.55;4.28;;;;;;;8.93;100.00;101719.41;4990648;28;20059;-75
2022/11/10 01:57:05;;;;;;;20.58;4.65;;;;;;;8.94;100.00;101718.47;5005517;28;20090;-75
2022/11/10 01:59:39;;;;;;;17.30;4.78;;;;;;;8.91;100.00;101724.75;4988519;28;20025;-75
2022/11/10 02:02:12;;;;;;;16.73;4.10;;;;;;;8.91;100.00;101718.66;4971041;28;20035;-75
2022/11/10 02:04:39;;;;;;;17.63;4.25;;;;;;;8.90;100.00;101706.47;4970920;28;20440;-74
2022/11/10 02:07:05;;;;;;;17.10;4.50;;;;;;;8.92;100.00;101709.84;4986389;28;20030;-74
2022/11/10 02:09:37;;;;;;;21.85;4.65;;;;;;;8.90;100.00;101717.81;4970962;28;20414;-74
2022/11/10 02:12:03;;;;;;;17.25;4.40;;;;;;;8.89;100.00;101715.25;4980875;28;20034;-74
2022/11/10 02:14:29;;;;;;;16.60;3.85;;;;;;;8.88;100.00;101719.66;5006160;28;20446;-74
2022/11/10 02:16:55;;;;;;;16.83;3.95;;;;;;;8.89;100.00;101717.88;4988462;28;20443;-74
2022/11/10 02:19:23;;;;;;;20.75;4.20;;;;;;;8.88;100.00;101718.81;4989512;28;20061;-75
2022/11/10 02:21:48;;;;;;;17.05;3.97;;;;;;;8.87;100.00;101717.13;4990148;28;20023;-75
2022/11/10 02:24:14;;;;;;;18.65;3.85;;;;;;;8.88;100.00;101729.31;4990019;28;20041;-74
2022/11/10 02:26:45;;;;;;;16.80;4.60;;;;;;;8.88;100.00;101735.41;4988533;28;20023;-74
2022/11/10 02:29:12;;;;;;;19.45;3.85;;;;;;;8.88;100.00;101745.06;4990756;28;20498;-75
2022/11/10 02:31:37;;;;;;;20.48;4.55;;;;;;;8.86;100.00;101736.41;4988077;28;20030;-75
2022/11/10 02:34:03;;;;;;;16.95;3.75;;;;;;;8.85;100.00;101750.47;4985916;28;20487;-74
2022/11/10 02:36:28;;;;;;;16.58;3.90;;;;;;;8.84;100.00;101754.03;4985563;28;20030;-75
2022/11/10 02:38:54;;;;;;;19.55;4.05;;;;;;;8.83;100.00;101761.03;5008293;28;20022;-75
2022/11/10 02:41:19;;;;;;;14.88;4.03;;;;;;;8.83;100.00;101763.66;5016480;28;20084;-75
2022/11/10 02:43:44;;;;;;;18.33;4.35;;;;;;;8.84;100.00;101775.00;4989054;28;20034;-75
2022/11/10 02:46:10;;;;;;;16.35;4.07;;;;;;;8.81;100.00;101769.94;4984573;28;20034;-75
2022/11/10 02:48:38;;;;;;;20.13;4.55;;;;;;;8.81;100.00;101780.41;4982971;28;20029;-75
2022/11/10 02:51:04;;;;;;;18.23;4.25;;;;;;;8.78;100.00;101787.50;5004711;28;20079;-74
2022/11/10 02:53:29;;;;;;;17.55;4.05;;;;;;;8.78;100.00;101790.13;4988044;28;20039;-75
2022/11/10 02:55:54;;;;;;;18.73;4.40;;;;;;;8.77;100.00;101790.19;4993108;28;20076;-75
2022/11/10 02:58:20;;;;;;;17.17;4.05;;;;;;;8.78;100.00;101777.00;4993227;28;20037;-75
2022/11/10 03:00:45;;;;;;;19.33;4.70;;;;;;;8.76;100.00;101776.22;4993444;28;20061;-83
2022/11/10 03:03:10;;;;;;;20.55;4.60;;;;;;;8.74;100.00;101764.97;4991551;28;20135;-75
2022/11/10 03:05:36;;;;;;;17.23;4.20;;;;;;;8.74;100.00;101775.47;4989782;28;20022;-75
2022/11/10 03:08:02;;;;;;;19.27;4.57;;;;;;;8.70;100.00;101768.69;4990600;28;20038;-76
2022/11/10 03:10:29;;;;;;;15.05;4.13;;;;;;;8.69;100.00;101781.88;4992255;28;20027;-76
2022/11/10 03:12:57;;;;;;;20.25;4.35;;;;;;;8.67;100.00;101788.97;4993199;28;20041;-75
2022/11/10 03:15:23;;;;;;;20.25;4.15;;;;;;;8.67;100.00;101794.22;5003035;28;20550;-76
2022/11/10 03:17:49;;;;;;;20.65;4.60;;;;;;;8.63;100.00;101793.53;4995879;28;20026;-75
2022/11/10 03:20:14;;;;;;;18.05;4.20;;;;;;;8.62;100.00;101796.25;4990808;28;20033;-75
2022/11/10 03:22:40;;;;;;;15.15;3.83;;;;;;;8.61;100.00;101792.75;4978464;28;20027;-75
2022/11/10 03:25:05;;;;;;;18.50;3.97;;;;;;;8.60;100.00;101798.94;4989606;28;20514;-75
2022/11/10 03:27:34;;;;;;;15.95;3.92;;;;;;;8.56;100.00;101807.88;4972303;28;20027;-75
2022/11/10 03:29:59;;;;;;;17.70;4.88;;;;;;;8.57;100.00;101814.84;4974843;28;20027;-75
2022/11/10 03:32:25;;;;;;;19.50;4.10;;;;;;;8.54;100.00;101809.75;4974625;28;20042;-75
2022/11/10 03:34:50;;;;;;;24.02;4.47;;;;;;;8.54;100.00;101812.38;4972636;28;20177;-75
2022/11/10 03:37:15;;;;;;;17.85;4.00;;;;;;;8.53;100.00;101825.56;4977879;28;20546;-76
2022/11/10 03:39:41;;;;;;;19.50;3.85;;;;;;;8.50;100.00;101823.09;4993267;28;20113;-75
2022/11/10 03:42:06;;;;;;;14.18;3.72;;;;;;;8.50;100.00;101829.19;5007491;28;20430;-75
2022/11/10 03:44:34;;;;;;;24.23;4.78;;;;;;;8.47;100.00;101834.59;4993537;28;20475;-75
2022/11/10 03:47:02;;;;;;;19.33;5.05;;;;;;;8.44;100.00;101842.59;4991132;28;20542;-76
2022/11/10 03:49:29;;;;;;;15.65;3.63;;;;;;;8.43;100.00;101840.91;4973536;28;20045;-76
2022/11/10 03:51:55;;;;;;;13.90;4.10;;;;;;;8.42;100.00;101842.69;4972878;28;20029;-82
2022/11/10 03:54:20;;;;;;;18.30;4.57;;;;;;;8.42;100.00;101847.06;4973436;28;20109;-76
2022/11/10 03:56:46;;;;;;;17.52;4.30;;;;;;;8.41;100.00;101856.72;4972194;28;20106;-76
2022/11/10 03:59:12;;;;;;;20.77;4.72;;;;;;;8.38;100.00;101855.97;4973116;28;20031;-76
2022/11/10 04:01:37;;;;;;;16.10;4.40;;;;;;;8.37;100.00;101859.53;4987547;28;20045;-76
2022/11/10 04:04:03;;;;;;;23.23;4.20;;;;;;;8.34;100.00;101864.94;4992165;28;20084;-76
2022/11/10 04:09:13;;;;;;;15.82;4.15;;;;;;;8.32;100.00;101861.50;4992352;28;20116;-75
2022/11/10 04:17:23;;;;;;;19.58;4.57;;;;;;;8.27;100.00;101871.34;4947062;28;20046;-76
2022/11/10 04:19:48;;;;;;;18.35;4.65;;;;;;;8.24;100.00;101876.75;4963830;28;20039;-76
2022/11/10 04:23:25;;;;;;;32.08;5.00;;;;;;;8.26;100.00;101882.78;4973102;28;20049;-76
2022/11/10 04:24:59;;;;;;;20.25;5.28;;;;;;;8.26;100.00;101893.25;4972875;28;20045;-76
2022/11/10 04:27:24;;;;;;;16.70;4.50;;;;;;;8.25;100.00;101891.56;4979113;28;20438;-76
2022/11/10 04:29:49;;;;;;;22.05;5.28;;;;;;;8.24;100.00;101895.09;4995383;28;20392;-76
2022/11/10 04:32:15;;;;;;;21.65;4.93;;;;;;;8.22;100.00;101894.34;5007657;28;20034;-76
2022/11/10 04:34:40;;;;;;;16.17;4.85;;;;;;;8.23;100.00;101901.28;4979304;28;20033;-76
2022/11/10 04:37:05;;;;;;;22.45;4.70;;;;;;;8.22;100.00;101902.19;4992317;28;20386;-76
2022/11/10 04:39:31;;;;;;;19.70;5.00;;;;;;;8.21;100.00;101908.34;4991049;28;20061;-76
2022/11/10 04:41:56;;;;;;;16.90;4.32;;;;;;;8.21;100.00;101900.50;4992559;28;20117;-76
2022/11/10 04:44:22;;;;;;;15.80;4.40;;;;;;;8.22;100.00;101908.28;4992060;28;20025;-76
2022/11/10 04:46:48;;;;;;;17.52;4.68;;;;;;;8.21;100.00;101918.84;4992148;28;20058;-75
2022/11/10 04:49:13;;;;;;;20.20;5.20;;;;;;;8.19;100.00;101921.53;4992477;28;20473;-75
2022/11/10 04:51:39;;;;;;;19.17;5.03;;;;;;;8.21;100.00;101916.22;5006453;28;20057;-81
2022/11/10 04:54:05;;;;;;;21.98;4.75;;;;;;;8.19;100.00;101926.78;4992361;28;20068;-75
2022/11/10 04:56:34;;;;;;;19.75;4.93;;;;;;;8.18;100.00;101922.47;5007501;28;20478;-75
2022/11/10 04:58:59;;;;;;;27.23;4.85;;;;;;;8.17;100.00;101937.34;4991692;28;20085;-76
2022/11/10 05:01:26;;;;;;;22.25;4.72;;;;;;;8.20;100.00;101938.13;4991515;28;20466;-75
2022/11/10 05:03:52;;;;;;;24.35;5.22;;;;;;;8.18;100.00;101941.66;4992861;28;20387;-82
2022/11/10 05:06:18;;;;;;;21.98;4.85;;;;;;;8.19;100.00;101934.66;4986272;28;20019;-81
2022/11/10 05:08:45;;;;;;;20.55;4.50;;;;;;;8.21;100.00;101942.44;4970000;28;20042;-82
2022/11/10 05:11:10;;;;;;;25.05;4.85;;;;;;;8.20;100.00;101946.00;4972153;28;20027;-82
2022/11/10 05:13:36;;;;;;;26.88;4.75;;;;;;;8.17;100.00;101947.81;4988642;28;20120;-82
2022/11/10 05:16:02;;;;;;;24.98;5.05;;;;;;;8.17;100.00;101963.56;4991485;28;20028;-76
2022/11/10 05:18:27;;;;;;;21.50;4.75;;;;;;;8.18;100.00;101961.78;4991218;28;20030;-76
2022/11/10 05:20:52;;;;;;;20.45;4.95;;;;;;;8.17;100.00;101953.06;4989168;28;20036;-76
2022/11/10 05:23:37;;;;;;;22.25;5.25;;;;;;;8.17;100.00;101958.31;4990760;28;20070;-76
2022/11/10 05:26:13;;;;;;;29.38;5.68;;;;;;;8.13;100.00;101967.25;4990987;28;20434;-77
2022/11/10 05:28:40;;;;;;;20.63;4.50;;;;;;;8.14;100.00;101968.09;4990952;28;20507;-76
2022/11/10 05:31:06;;;;;;;22.92;4.95;;;;;;;8.14;100.00;101968.94;4990313;28;20117;-77
2022/11/10 05:33:35;;;;;;;22.13;4.65;;;;;;;8.13;100.00;101971.63;4989666;28;20475;-77
2022/11/10 05:36:01;;;;;;;21.20;4.68;;;;;;;8.13;100.00;101959.38;4991505;28;20599;-78
2022/11/10 05:38:27;;;;;;;21.40;5.50;;;;;;;8.09;100.00;101955.19;4989390;28;20110;-76
2022/11/10 05:40:52;;;;;;;17.20;4.55;;;;;;;8.08;100.00;101942.16;4990846;28;20054;-83
2022/11/10 05:43:17;;;;;;;20.48;4.68;;;;;;;8.07;100.00;101945.72;4991373;28;20014;-76
2022/11/10 05:45:43;;;;;;;17.90;4.55;;;;;;;8.05;100.00;101953.66;4990868;28;20926;-76
2022/11/10 05:48:08;;;;;;;25.27;5.28;;;;;;;8.05;100.00;101963.28;4991350;28;20601;-83
2022/11/10 05:50:33;;;;;;;18.38;4.70;;;;;;;8.03;100.00;101962.50;4990863;28;20379;-83
2022/11/10 05:52:59;;;;;;;16.65;4.47;;;;;;;8.03;100.00;101979.06;4991896;28;20029;-77
2022/11/10 05:55:26;;;;;;;24.83;5.30;;;;;;;8.02;100.00;101980.00;4978916;28;20027;-76
2022/11/10 05:57:53;;;;;;;20.15;4.78;;;;;;;7.99;100.00;101977.47;4994174;28;20026;-74
2022/11/10 06:00:24;;;;;;;18.33;4.57;;;;;;;7.98;100.00;101988.88;4991434;28;20026;-82
2022/11/10 06:03:01;;;;;;;27.30;5.00;;;;;;;7.97;100.00;101981.94;5017016;28;20057;-75
2022/11/10 06:05:28;;;;;;;19.58;4.75;;;;;;;7.94;100.00;101989.94;5025953;28;20044;-75
2022/11/10 06:07:54;;;;;;;25.02;5.20;;;;;;;7.94;100.00;101984.69;5025510;28;20036;-75
2022/11/10 06:10:19;;;;;;;22.52;4.90;;;;;;;7.93;100.00;101996.09;5009477;28;20018;-75
2022/11/10 06:12:44;;;;;;;19.58;5.00;;;;;;;7.91;100.00;101997.09;4992775;28;20038;-76
2022/11/10 06:15:10;;;;;;;17.23;4.53;;;;;;;7.90;100.00;102001.47;4989875;28;20058;-76
2022/11/10 06:17:38;;;;;;;17.83;4.43;;;;;;;7.89;100.00;102014.66;5004969;28;20049;-76
2022/11/10 06:20:04;;;;;;;22.52;4.90;;;;;;;7.87;100.00;102012.09;4990535;28;20029;-81
2022/11/10 06:22:33;;;;;;;21.65;5.25;;;;;;;7.83;100.00;102003.53;4989820;28;20023;-82
2022/11/10 06:24:58;;;;;;;17.60;4.30;;;;;;;7.80;100.00;102018.53;4989217;28;20031;-81
2022/11/10 06:27:25;;;;;;;20.13;5.07;;;;;;;7.82;100.00;102021.94;5005104;28;20318;-82
2022/11/10 06:29:50;;;;;;;20.52;4.90;;;;;;;7.81;100.00;102018.47;4987198;28;20217;-82
2022/11/10 06:32:16;;;;;;;16.75;4.13;;;;;;;7.81;100.00;102022.84;4989468;28;20088;-82
2022/11/10 06:34:41;;;;;;;23.77;5.18;;;;;;;7.79;100.00;102032.56;4989192;28;20696;-75
2022/11/10 06:37:07;;;;;;;18.02;4.60;;;;;;;7.79;100.00;102032.56;4989030;28;20022;-75
2022/11/10 06:39:36;;;;;;;18.67;4.30;;;;;;;7.75;100.00;102041.47;4989189;28;20505;-76
2022/11/10 06:42:01;;;;;;;20.25;4.65;;;;;;;7.75;100.00;102044.94;4987120;28;20124;-74
2022/11/10 06:44:27;;;;;;;25.70;5.03;;;;;;;7.76;100.00;102051.03;4987567;28;20453;-74
2022/11/10 06:46:55;;;;;;;25.45;5.30;;;;;;;7.74;100.00;102053.72;4987686;28;20113;-76
2022/11/10 06:49:21;;;;;;;21.23;5.10;;;;;;;7.74;100.00;102052.88;4979899;28;20074;-76
2022/11/10 06:51:46;;;;;;;21.00;4.85;;;;;;;7.74;100.00;102053.72;5001891;28;20549;-76
2022/11/10 06:54:11;;;;;;;20.38;4.78;;;;;;;7.76;100.00;102066.75;5000829;28;20487;-76
2022/11/10 06:56:37;;;;;;;19.58;4.93;;;;;;;7.78;100.00;102070.16;4987910;28;20038;-76
2022/11/10 06:59:02;;;;;;;24.20;5.18;;;;;;;7.79;100.00;102070.09;4988033;28;20164;-75
2022/11/10 07:01:28;;;;;;;21.30;5.15;;;;;;;7.79;100.00;102077.09;4988295;28;20046;-75
2022/11/10 07:03:53;;;;;;;20.08;5.18;;;;;;;7.78;100.00;102075.38;4988734;28;20497;-76
2022/11/10 07:06:19;;;;;;;24.90;4.97;;;;;;;7.80;100.00;102069.16;4997109;28;20010;-75
2022/11/10 07:08:45;;;;;;;18.85;4.70;;;;;;;7.79;100.00;102077.09;4988340;28;20038;-82
2022/11/10 07:11:10;;;;;;;26.30;5.05;;;;;;;7.80;100.00;102078.78;4989767;28;20022;-82
2022/11/10 07:13:36;;;;;;;17.85;4.78;;;;;;;7.80;100.00;102079.66;5003607;28;20046;-75
2022/11/10 07:16:08;;;;;;;20.65;5.22;;;;;;;7.83;100.00;102091.75;4990380;28;20022;-76
2022/11/10 07:18:34;;;;;;;20.08;4.70;;;;;;;7.85;100.00;102097.78;4988643;28;20160;-74
2022/11/10 07:21:04;;;;;;;18.75;4.40;;;;;;;7.87;100.00;102106.44;4989653;28;20042;-75
2022/11/10 07:23:32;;;;;;;23.05;5.07;;;;;;;7.90;100.00;102108.06;5003092;28;20026;-75
2022/11/10 07:26:01;;;;;;;22.65;5.22;;;;;;;7.90;100.00;102111.53;4988053;28;20037;-75
2022/11/10 07:28:26;;;;;;;18.95;4.43;;;;;;;7.92;100.00;102117.56;4989947;28;20031;-76
2022/11/10 07:30:52;;;;;;;21.65;5.50;;;;;;;7.96;100.00;102131.38;4988334;28;20602;-76
2022/11/10 07:33:17;;;;;;;21.45;4.72;;;;;;;8.00;100.00;102139.06;4987205;28;20406;-76
2022/11/10 07:35:43;;;;;;;22.08;5.05;;;;;;;8.03;100.00;102127.63;5002672;28;20038;-75
2022/11/10 07:38:11;;;;;;;22.23;4.80;;;;;;;8.09;100.00;102132.59;4988939;28;20101;-82
2022/11/10 07:40:36;;;;;;;34.17;6.45;;;;;;;8.13;100.00;102135.00;4988571;28;20054;-81
2022/11/10 07:43:02;;;;;;;22.10;5.22;;;;;;;8.16;100.00;102137.50;4992732;28;20030;-82
2022/11/10 07:45:29;;;;;;;19.02;4.88;;;;;;;8.23;100.00;102137.22;4993609;28;20533;-76
2022/11/10 07:48:04;;;;;;;19.73;4.68;;;;;;;8.27;100.00;102137.03;4991802;28;20101;-76
2022/11/10 07:50:29;;;;;;;21.50;4.63;;;;;;;8.32;100.00;102139.44;4993288;28;20125;-76
2022/11/10 07:53:16;;;;;;;21.80;4.75;;;;;;;8.38;100.00;102139.19;4991165;28;20106;-75
2022/11/10 07:55:43;;;;;;;24.73;4.88;;;;;;;8.42;100.00;102143.41;4988454;28;20056;-75
2022/11/10 07:58:10;;;;;;;18.05;4.70;;;;;;;8.47;100.00;102138.81;4992496;28;20060;-74
2022/11/10 08:00:37;;;;;;;21.48;5.28;;;;;;;8.52;100.00;102149.97;5006343;28;20027;-75
2022/11/10 08:03:04;;;;;;;18.77;4.65;;;;;;;8.56;100.00;102159.38;4992620;28;20033;-75
2022/11/10 08:05:33;;;;;;;18.58;4.85;;;;;;;8.62;100.00;102163.50;5007648;28;20022;-76
2022/11/10 08:07:59;;;;;;;17.92;4.82;;;;;;;8.67;100.00;102164.16;5002651;28;20667;-75
2022/11/10 08:10:28;;;;;;;15.55;4.55;;;;;;;8.72;100.00;102162.16;4992067;28;20030;-75
2022/11/10 08:12:57;;;;;;;23.42;5.22;;;;;;;8.75;100.00;102170.75;4991610;28;20104;-75
2022/11/10 08:15:24;;;;;;;16.65;4.93;;;;;;;8.81;100.00;102185.41;5006667;28;20382;-75
2022/11/10 08:17:50;;;;;;;22.38;4.88;;;;;;;8.89;100.00;102182.41;5005841;28;20652;-75
2022/11/10 08:20:16;;;;;;;19.25;4.93;;;;;;;8.93;100.00;102183.97;5007497;28;20030;-75
2022/11/10 08:22:41;;;;;;;22.42;5.60;;;;;;;8.97;100.00;102188.16;4990369;28;20034;-75
2022/11/10 08:25:07;;;;;;;23.58;5.57;;;;;;;9.03;100.00;102183.47;4996282;28;20027;-74
2022/11/10 08:27:33;;;;;;;18.70;4.82;;;;;;;9.09;100.00;102184.97;4991979;28;20309;-74
2022/11/10 08:29:58;;;;;;;19.40;5.07;;;;;;;9.13;100.00;102189.16;4990464;28;20041;-75
2022/11/10 08:32:24;;;;;;;20.55;5.82;;;;;;;9.15;100.00;102195.19;4991874;28;20026;-75
2022/11/10 08:34:50;;;;;;;19.77;4.90;;;;;;;9.21;100.00;102204.56;4991542;28;20042;-83
2022/11/10 08:37:18;;;;;;;17.60;4.60;;;;;;;9.25;100.00;102191.22;4991644;28;20081;-82
2022/11/10 08:39:43;;;;;;;17.92;4.90;;;;;;;9.31;100.00;102196.19;4991799;28;20030;-74
2022/11/10 08:42:08;;;;;;;20.85;5.72;;;;;;;9.36;100.00;102195.97;4995903;28;20612;-82
2022/11/10 08:44:34;;;;;;;22.35;5.15;;;;;;;9.43;100.00;102200.84;4991175;28;20022;-74
2022/11/10 08:47:01;;;;;;;19.63;4.95;;;;;;;9.48;100.00;102207.66;4992486;28;20089;-75
2022/11/10 08:49:27;;;;;;;19.38;4.55;;;;;;;9.55;100.00;102198.56;4992207;28;20026;-76
2022/11/10 08:51:52;;;;;;;19.27;4.50;;;;;;;9.60;100.00;102205.28;4986552;28;21943;-74
2022/11/10 08:54:17;;;;;;;24.00;4.72;;;;;;;9.69;100.00;102202.25;4991789;28;20030;-74
2022/11/10 08:56:43;;;;;;;18.17;4.15;;;;;;;9.72;100.00;102207.34;4990440;28;20041;-75
2022/11/10 08:59:08;;;;;;;21.23;5.10;;;;;;;9.81;100.00;102210.44;5006097;28;20117;-75
2022/11/10 09:01:33;;;;;;;19.33;4.13;;;;;;;9.86;100.00;102205.81;4990265;28;20030;-75
2022/11/10 09:03:58;;;;;;;21.58;5.18;;;;;;;9.92;100.00;102219.50;5005613;28;21804;-74
2022/11/10 09:06:24;;;;;;;18.60;5.50;;;;;;;9.96;100.00;102223.69;4991399;28;20045;-74
2022/11/10 09:08:49;;;;;;;22.25;5.00;;;;;;;10.03;100.00;102221.63;4990720;28;20616;-75
2022/11/10 09:11:14;;;;;;;21.08;5.07;;;;;;;10.09;100.00;102225.72;4990520;28;20045;-76
2022/11/10 09:13:40;;;;;;;21.55;4.40;;;;;;;10.17;100.00;102234.06;4990430;28;20103;-75
2022/11/10 09:16:05;;;;;;;18.85;4.35;;;;;;;10.23;100.00;102233.78;4992209;28;20026;-83
2022/11/10 09:18:33;;;;;;;15.93;4.20;;;;;;;10.29;100.00;102238.75;4990311;28;20031;-75
2022/11/10 09:21:02;;;;;;;19.23;4.68;;;;;;;10.37;100.00;102247.09;4990522;28;20045;-76
2022/11/10 09:23:27;;;;;;;14.05;4.57;;;;;;;10.43;100.00;102246.81;4992039;28;20041;-75
2022/11/10 09:25:54;;;;;;;18.52;4.78;;;;;;;10.49;100.00;102245.66;4990710;28;20034;-82
2022/11/10 09:28:21;;;;;;;17.10;4.57;;;;;;;10.55;100.00;102240.91;4991557;28;20027;-75
2022/11/10 09:30:48;;;;;;;19.30;5.35;;;;;;;10.59;99.66;102242.44;4990470;28;20034;-74
2022/11/10 09:33:14;;;;;;;20.30;4.88;;;;;;;10.66;99.71;102238.56;5004261;28;20029;-83
2022/11/10 09:35:40;;;;;;;17.05;4.68;;;;;;;10.74;99.62;102245.22;4990158;28;20386;-83
2022/11/10 09:38:05;;;;;;;16.10;4.40;;;;;;;10.84;99.58;102242.03;4990884;28;20034;-73
2022/11/10 09:40:42;;;;;;;16.02;4.60;;;;;;;10.92;98.91;102242.47;4990406;28;20034;-76
2022/11/10 09:43:16;;;;;;;18.85;4.80;;;;;;;10.94;98.15;102242.41;4987925;28;20033;-73
2022/11/10 09:45:45;;;;;;;20.27;4.78;;;;;;;11.05;97.62;102241.81;4990362;28;20033;-76
2022/11/10 09:48:25;;;;;;;23.63;5.53;;;;;;;11.10;96.80;102248.53;4992395;28;20483;-75
2022/11/10 09:51:05;;;;;;;17.30;4.30;;;;;;;11.16;96.62;102256.09;5004810;28;20041;-74
2022/11/10 09:54:01;;;;;;;20.40;5.03;;;;;;;11.24;97.05;102256.56;4981685;28;20026;-81
2022/11/10 09:56:33;;;;;;;16.40;4.15;;;;;;;11.33;95.60;102259.63;4990906;28;20030;-74
2022/11/10 09:58:59;;;;;;;18.65;4.97;;;;;;;11.40;95.94;102247.81;4990745;28;20440;-82
2022/11/10 10:01:40;;;;;;;16.27;4.72;;;;;;;11.44;94.61;102238.78;4988893;28;20026;-73
2022/11/10 10:04:28;;;;;;;16.20;4.70;;;;;;;11.51;94.10;102248.06;4989286;28;20038;-73
2022/11/10 10:07:12;;;;;;;19.85;4.95;;;;;;;11.57;94.97;102250.34;4989046;28;20029;-73
2022/11/10 10:09:37;;;;;;;20.42;4.50;;;;;;;11.62;93.26;102248.34;4988977;28;20026;-74
2022/11/10 10:12:10;;;;;;;17.00;4.53;;;;;;;11.69;92.87;102247.06;4990670;28;20422;-74
2022/11/10 10:14:41;;;;;;;20.95;4.80;;;;;;;11.74;92.79;102250.28;4984519;28;20038;-73
2022/11/10 10:17:24;;;;;;;15.95;4.47;;;;;;;11.82;92.82;102258.63;4990172;28;20066;-73
2022/11/10 10:20:02;;;;;;;17.30;4.10;;;;;;;11.90;91.38;102261.69;4990008;28;20092;-83
2022/11/10 10:22:54;;;;;;;15.70;4.05;;;;;;;11.99;92.11;102264.72;4988138;28;20102;-74
2022/11/10 10:25:23;;;;;;;16.95;3.63;;;;;;;12.09;91.32;102269.41;4989721;28;20100;-84
2022/11/10 10:28:11;;;;;;;13.60;4.05;;;;;;;12.17;90.88;102276.88;4987771;28;20026;-84
2022/11/10 10:30:36;;;;;;;14.52;4.32;;;;;;;12.25;90.16;102272.00;4988276;28;20022;-73
2022/11/10 10:33:15;;;;;;;15.48;4.03;;;;;;;12.34;90.06;102271.47;4989544;28;20030;-77
2022/11/10 10:35:43;;;;;;;16.80;4.13;;;;;;;12.43;88.99;102284.13;4985371;28;20065;-77
2022/11/10 10:38:28;;;;;;;16.85;3.63;;;;;;;12.51;89.32;102292.44;4986671;28;20794;-75
2022/11/10 10:40:59;;;;;;;19.10;4.28;;;;;;;12.53;87.16;102293.22;4987168;28;20085;-75
2022/11/10 10:43:25;;;;;;;20.02;4.07;;;;;;;12.55;86.51;102303.69;4982209;28;20033;-76
2022/11/10 10:46:06;;;;;;;13.90;3.65;;;;;;;12.63;88.16;102314.63;4994947;28;20022;-82
2022/11/10 10:48:33;;;;;;;16.48;4.05;;;;;;;12.70;87.85;102315.97;4990461;28;20646;-75
2022/11/10 10:50:58;;;;;;;12.13;3.20;;;;;;;12.78;86.90;102312.84;4988905;28;20030;-76
2022/11/10 10:53:24;;;;;;;14.55;3.58;;;;;;;12.88;85.93;102315.81;4989918;28;20035;-76
2022/11/10 10:55:58;;;;;;;12.55;3.60;;;;;;;12.93;85.20;102311.97;4989817;28;20025;-76
2022/11/10 10:58:52;;;;;;;14.05;3.60;;;;;;;13.03;86.00;102320.16;4969875;28;20034;-83
2022/11/10 11:01:37;;;;;;;14.27;3.38;;;;;;;13.13;85.07;102321.31;4974697;28;20030;-76
2022/11/10 11:04:26;;;;;;;14.80;3.60;;;;;;;13.20;84.51;102320.00;4988690;28;20442;-75
2022/11/10 11:07:04;;;;;;;12.50;3.60;;;;;;;13.21;81.78;102321.75;4989594;28;20081;-76
2022/11/10 11:09:39;;;;;;;15.85;4.00;;;;;;;13.30;83.19;102315.03;5003978;28;20494;-76
2022/11/10 11:12:09;;;;;;;15.73;3.20;;;;;;;13.35;82.84;102307.66;4977342;28;20442;-84
2022/11/10 11:14:34;;;;;;;14.27;3.38;;;;;;;13.41;81.64;102302.84;4987998;28;20118;-82
2022/11/10 11:17:11;;;;;;;12.23;3.10;;;;;;;13.46;81.18;102313.13;4993027;28;20093;-75
2022/11/10 11:19:37;;;;;;;12.48;3.13;;;;;;;13.48;80.56;102314.72;4991785;28;20454;-75
2022/11/10 11:22:27;;;;;;;13.05;3.13;;;;;;;13.56;81.92;102316.03;4993490;28;20475;-76
2022/11/10 11:25:02;;;;;;;12.02;3.28;;;;;;;13.59;80.53;102310.53;4989941;28;20358;-83
2022/11/10 11:27:43;;;;;;;15.70;3.13;;;;;;;13.62;80.58;102310.38;4986913;28;20538;-76
2022/11/10 11:30:21;;;;;;;12.52;3.10;;;;;;;13.75;80.83;102301.56;4991456;28;20030;-76
2022/11/10 11:33:08;;;;;;;14.35;3.03;;;;;;;13.79;77.54;102311.00;4992047;28;20030;-76